sensor_id;sensor_type;location;lat;lon;timestamp;temperature;humidity
31309;DHT22;17936;52.446;10.840;2023-02-07T00:00:41;-1.00;99.90
31309;DHT22;17936;52.446;10.840;2023-02-07T00:03:07;-1.10;99.90
31309;DHT22;17936;52.446;10.840;2023-02-07T00:05:32;-1.10;99.90
31309;DHT22;17936;52.446;10.840;2023-02-07T00:07:58;-1.00;99.90
31309;DHT22;17936;52.446;10.840;2023-02-07T00:10:23;-1.10;99.90
31309;DHT22;17936;52.446;10.840;2023-02-07T00:12:49;-1.20;99.90
31309;DHT22;17936;52.446;10.840;2023-02-07T00:15:15;-1.10;99.90
31309;DHT22;17936;52.446;10.840;2023-02-07T00:17:40;-1.10;99.90
31309;DHT22;17936;52.446;10.840;2023-02-07T00:20:07;-1.20;99.90
31309;DHT22;17936;52.446;10.840;2023-02-07T00:22:33;-1.10;99.90
31309;DHT22;17936;52.446;10.840;2023-02-07T00:24:59;-1.10;99.90
31309;DHT22;17936;52.446;10.840;2023-02-07T00:27:24;-1.00;99.90
31309;DHT22;17936;52.446;10.840;2023-02-07T00:29:50;-0.90;99.90
31309;DHT22;17936;52.446;10.840;2023-02-07T00:32:15;-0.80;99.90
31309;DHT22;17936;52.446;10.840;2023-02-07T00:34:41;-0.90;99.90
31309;DHT22;17936;52.446;10.840;2023-02-07T00:37:07;-0.90;99.90
31309;DHT22;17936;52.446;10.840;2023-02-07T00:39:32;-1.10;99.90
31309;DHT22;17936;52.446;10.840;2023-02-07T00:41:58;-1.10;99.90
31309;DHT22;17936;52.446;10.840;2023-02-07T00:44:24;-1.10;99.90
31309;DHT22;17936;52.446;10.840;2023-02-07T00:46:49;-1.40;99.90
31309;DHT22;17936;52.446;10.840;2023-02-07T00:49:15;-1.50;99.90
31309;DHT22;17936;52.446;10.840;2023-02-07T00:51:40;-1.40;99.90
31309;DHT22;17936;52.446;10.840;2023-02-07T00:54:06;-1.30;99.90
31309;DHT22;17936;52.446;10.840;2023-02-07T00:56:32;-1.40;99.90
31309;DHT22;17936;52.446;10.840;2023-02-07T00:58:58;-1.50;99.90
31309;DHT22;17936;52.446;10.840;2023-02-07T01:01:24;-1.50;99.90
31309;DHT22;17936;52.446;10.840;2023-02-07T01:03:52;-1.60;99.90
31309;DHT22;17936;52.446;10.840;2023-02-07T01:06:17;-1.60;99.90
31309;DHT22;17936;52.446;10.840;2023-02-07T01:08:43;-1.70;99.90
31309;DHT22;17936;52.446;10.840;2023-02-07T01:11:12;-1.70;99.90
31309;DHT22;17936;52.446;10.840;2023-02-07T01:13:38;-1.80;99.90
31309;DHT22;17936;52.446;10.840;2023-02-07T01:16:04;-1.90;99.90
31309;DHT22;17936;52.446;10.840;2023-02-07T01:18:30;-2.00;99.90
31309;DHT22;17936;52.446;10.840;2023-02-07T01:20:56;-2.00;99.90
31309;DHT22;17936;52.446;10.840;2023-02-07T01:23:21;-2.10;99.90
31309;DHT22;17936;52.446;10.840;2023-02-07T01:25:47;-2.10;99.90
31309;DHT22;17936;52.446;10.840;2023-02-07T01:28:13;-2.10;99.90
31309;DHT22;17936;52.446;10.840;2023-02-07T01:30:41;-2.10;99.90
31309;DHT22;17936;52.446;10.840;2023-02-07T01:33:06;-2.20;99.90
31309;DHT22;17936;52.446;10.840;2023-02-07T01:35:32;-2.30;99.90
31309;DHT22;17936;52.446;10.840;2023-02-07T01:37:58;-2.30;99.90
31309;DHT22;17936;52.446;10.840;2023-02-07T01:40:24;-2.40;99.90
31309;DHT22;17936;52.446;10.840;2023-02-07T01:42:51;-2.50;99.90
31309;DHT22;17936;52.446;10.840;2023-02-07T01:47:53;-2.60;99.90
31309;DHT22;17936;52.446;10.840;2023-02-07T01:50:20;-2.60;99.90
31309;DHT22;17936;52.446;10.840;2023-02-07T01:52:46;-2.70;99.90
31309;DHT22;17936;52.446;10.840;2023-02-07T01:55:17;-2.70;99.90
31309;DHT22;17936;52.446;10.840;2023-02-07T01:57:44;-2.60;99.90
31309;DHT22;17936;52.446;10.840;2023-02-07T02:00:13;-2.60;99.90
31309;DHT22;17936;52.446;10.840;2023-02-07T02:02:39;-2.70;99.90
31309;DHT22;17936;52.446;10.840;2023-02-07T02:05:06;-2.80;99.90
31309;DHT22;17936;52.446;10.840;2023-02-07T02:07:34;-2.80;99.90
31309;DHT22;17936;52.446;10.840;2023-02-07T02:10:00;-2.90;99.90
31309;DHT22;17936;52.446;10.840;2023-02-07T02:15:33;-3.00;99.90
31309;DHT22;17936;52.446;10.840;2023-02-07T02:26:42;-2.90;99.90
31309;DHT22;17936;52.446;10.840;2023-02-07T02:32:33;-3.10;99.90
31309;DHT22;17936;52.446;10.840;2023-02-07T02:35:29;-3.20;99.90
31309;DHT22;17936;52.446;10.840;2023-02-07T02:38:09;-3.20;99.90
31309;DHT22;17936;52.446;10.840;2023-02-07T02:40:51;-3.20;99.90
31309;DHT22;17936;52.446;10.840;2023-02-07T02:46:20;-3.10;99.90
31309;DHT22;17936;52.446;10.840;2023-02-07T02:48:46;-3.20;99.90
31309;DHT22;17936;52.446;10.840;2023-02-07T02:51:12;-3.10;99.90
31309;DHT22;17936;52.446;10.840;2023-02-07T02:53:37;-3.20;99.90
31309;DHT22;17936;52.446;10.840;2023-02-07T02:56:39;-3.30;99.90
31309;DHT22;17936;52.446;10.840;2023-02-07T02:59:32;-3.50;99.90
31309;DHT22;17936;52.446;10.840;2023-02-07T03:04:59;-3.50;99.90
31309;DHT22;17936;52.446;10.840;2023-02-07T03:13:16;-3.10;99.90
31309;DHT22;17936;52.446;10.840;2023-02-07T03:20:45;-3.00;99.90
31309;DHT22;17936;52.446;10.840;2023-02-07T03:23:15;-3.00;99.90
31309;DHT22;17936;52.446;10.840;2023-02-07T03:25:43;-3.00;99.90
31309;DHT22;17936;52.446;10.840;2023-02-07T03:28:11;-3.00;99.90
31309;DHT22;17936;52.446;10.840;2023-02-07T03:30:39;-3.00;99.90
31309;DHT22;17936;52.446;10.840;2023-02-07T03:33:09;-3.10;99.90
31309;DHT22;17936;52.446;10.840;2023-02-07T03:38:19;-3.10;99.90
31309;DHT22;17936;52.446;10.840;2023-02-07T03:40:47;-3.10;99.90
31309;DHT22;17936;52.446;10.840;2023-02-07T03:43:24;-3.10;99.90
31309;DHT22;17936;52.446;10.840;2023-02-07T03:45:51;-3.10;99.90
31309;DHT22;17936;52.446;10.840;2023-02-07T03:48:17;-3.10;99.90
31309;DHT22;17936;52.446;10.840;2023-02-07T03:50:43;-3.20;99.90
31309;DHT22;17936;52.446;10.840;2023-02-07T03:53:09;-3.20;99.90
31309;DHT22;17936;52.446;10.840;2023-02-07T03:55:35;-3.30;99.90
31309;DHT22;17936;52.446;10.840;2023-02-07T03:58:01;-3.30;99.90
31309;DHT22;17936;52.446;10.840;2023-02-07T04:00:26;-3.20;99.90
31309;DHT22;17936;52.446;10.840;2023-02-07T04:02:52;-3.20;99.90
31309;DHT22;17936;52.446;10.840;2023-02-07T04:05:18;-3.30;99.90
31309;DHT22;17936;52.446;10.840;2023-02-07T04:07:43;-3.40;99.90
31309;DHT22;17936;52.446;10.840;2023-02-07T04:10:10;-3.50;99.90
31309;DHT22;17936;52.446;10.840;2023-02-07T04:12:36;-3.30;99.90
31309;DHT22;17936;52.446;10.840;2023-02-07T04:15:03;-3.40;99.90
31309;DHT22;17936;52.446;10.840;2023-02-07T04:17:30;-3.50;99.90
31309;DHT22;17936;52.446;10.840;2023-02-07T04:19:55;-3.50;99.90
31309;DHT22;17936;52.446;10.840;2023-02-07T04:22:21;-3.50;99.90
31309;DHT22;17936;52.446;10.840;2023-02-07T04:24:47;-3.60;99.90
31309;DHT22;17936;52.446;10.840;2023-02-07T04:27:12;-3.50;99.90
31309;DHT22;17936;52.446;10.840;2023-02-07T04:29:38;-3.60;99.90
31309;DHT22;17936;52.446;10.840;2023-02-07T04:32:04;-3.60;99.90
31309;DHT22;17936;52.446;10.840;2023-02-07T04:34:29;-3.90;99.90
31309;DHT22;17936;52.446;10.840;2023-02-07T04:36:55;-4.10;99.90
31309;DHT22;17936;52.446;10.840;2023-02-07T04:39:20;-3.80;99.90
31309;DHT22;17936;52.446;10.840;2023-02-07T04:41:46;-3.70;99.90
31309;DHT22;17936;52.446;10.840;2023-02-07T04:44:12;-3.80;99.90
31309;DHT22;17936;52.446;10.840;2023-02-07T04:46:37;-3.80;99.90
31309;DHT22;17936;52.446;10.840;2023-02-07T04:49:03;-4.10;99.90
31309;DHT22;17936;52.446;10.840;2023-02-07T04:51:29;-4.10;99.90
31309;DHT22;17936;52.446;10.840;2023-02-07T04:53:55;-3.80;99.90
31309;DHT22;17936;52.446;10.840;2023-02-07T04:56:21;-3.90;99.90
31309;DHT22;17936;52.446;10.840;2023-02-07T04:58:47;-4.00;99.90
31309;DHT22;17936;52.446;10.840;2023-02-07T05:01:13;-4.10;99.90
31309;DHT22;17936;52.446;10.840;2023-02-07T05:03:39;-4.10;99.90
31309;DHT22;17936;52.446;10.840;2023-02-07T05:06:05;-4.30;99.90
31309;DHT22;17936;52.446;10.840;2023-02-07T05:08:31;-4.20;99.90
31309;DHT22;17936;52.446;10.840;2023-02-07T05:10:56;-4.00;99.90
31309;DHT22;17936;52.446;10.840;2023-02-07T05:13:22;-3.90;99.90
31309;DHT22;17936;52.446;10.840;2023-02-07T05:15:48;-3.90;99.90
31309;DHT22;17936;52.446;10.840;2023-02-07T05:18:14;-4.00;99.90
31309;DHT22;17936;52.446;10.840;2023-02-07T05:20:39;-3.90;99.90
31309;DHT22;17936;52.446;10.840;2023-02-07T05:23:05;-4.10;99.90
31309;DHT22;17936;52.446;10.840;2023-02-07T05:25:30;-4.10;99.90
31309;DHT22;17936;52.446;10.840;2023-02-07T05:27:56;-4.10;99.90
31309;DHT22;17936;52.446;10.840;2023-02-07T05:30:22;-4.00;99.90
31309;DHT22;17936;52.446;10.840;2023-02-07T05:32:47;-4.20;99.90
31309;DHT22;17936;52.446;10.840;2023-02-07T05:35:33;-4.20;99.90
31309;DHT22;17936;52.446;10.840;2023-02-07T05:37:59;-4.40;99.90
31309;DHT22;17936;52.446;10.840;2023-02-07T05:40:25;-4.50;99.90
31309;DHT22;17936;52.446;10.840;2023-02-07T05:42:50;-4.50;99.90
31309;DHT22;17936;52.446;10.840;2023-02-07T05:45:17;-4.50;99.90
31309;DHT22;17936;52.446;10.840;2023-02-07T05:47:42;-4.30;99.90
31309;DHT22;17936;52.446;10.840;2023-02-07T05:50:08;-4.30;99.90
31309;DHT22;17936;52.446;10.840;2023-02-07T05:52:33;-4.50;99.90
31309;DHT22;17936;52.446;10.840;2023-02-07T05:54:59;-4.60;99.90
31309;DHT22;17936;52.446;10.840;2023-02-07T05:57:24;-4.60;99.90
31309;DHT22;17936;52.446;10.840;2023-02-07T05:59:50;-4.60;99.90
31309;DHT22;17936;52.446;10.840;2023-02-07T06:02:16;-4.40;99.90
31309;DHT22;17936;52.446;10.840;2023-02-07T06:04:41;-4.60;99.90
31309;DHT22;17936;52.446;10.840;2023-02-07T06:07:07;-4.60;99.90
31309;DHT22;17936;52.446;10.840;2023-02-07T06:09:32;-4.40;99.90
31309;DHT22;17936;52.446;10.840;2023-02-07T06:11:58;-4.30;99.90
31309;DHT22;17936;52.446;10.840;2023-02-07T06:14:23;-4.30;99.90
31309;DHT22;17936;52.446;10.840;2023-02-07T06:16:49;-4.70;99.90
31309;DHT22;17936;52.446;10.840;2023-02-07T06:19:15;-4.40;99.90
31309;DHT22;17936;52.446;10.840;2023-02-07T06:21:40;-4.40;99.90
31309;DHT22;17936;52.446;10.840;2023-02-07T06:24:06;-4.30;99.90
31309;DHT22;17936;52.446;10.840;2023-02-07T06:26:32;-4.30;99.90
31309;DHT22;17936;52.446;10.840;2023-02-07T06:28:58;-4.40;99.90
31309;DHT22;17936;52.446;10.840;2023-02-07T06:31:24;-4.50;99.90
31309;DHT22;17936;52.446;10.840;2023-02-07T06:33:49;-4.50;99.90
31309;DHT22;17936;52.446;10.840;2023-02-07T06:36:15;-4.40;99.90
31309;DHT22;17936;52.446;10.840;2023-02-07T06:38:40;-4.40;99.90
31309;DHT22;17936;52.446;10.840;2023-02-07T06:41:06;-4.50;99.90
31309;DHT22;17936;52.446;10.840;2023-02-07T06:43:35;-4.30;99.90
31309;DHT22;17936;52.446;10.840;2023-02-07T06:46:01;-4.30;99.90
31309;DHT22;17936;52.446;10.840;2023-02-07T06:48:26;-4.40;99.90
31309;DHT22;17936;52.446;10.840;2023-02-07T06:50:52;-4.70;99.90
31309;DHT22;17936;52.446;10.840;2023-02-07T06:53:17;-4.80;99.90
31309;DHT22;17936;52.446;10.840;2023-02-07T06:55:43;-4.80;99.90
31309;DHT22;17936;52.446;10.840;2023-02-07T06:58:08;-4.70;99.90
31309;DHT22;17936;52.446;10.840;2023-02-07T07:00:35;-4.60;99.90
31309;DHT22;17936;52.446;10.840;2023-02-07T07:03:00;-4.70;99.90
31309;DHT22;17936;52.446;10.840;2023-02-07T07:05:27;-4.60;99.90
31309;DHT22;17936;52.446;10.840;2023-02-07T07:07:54;-4.80;99.90
31309;DHT22;17936;52.446;10.840;2023-02-07T07:10:20;-4.60;99.90
31309;DHT22;17936;52.446;10.840;2023-02-07T07:12:46;-4.40;99.90
31309;DHT22;17936;52.446;10.840;2023-02-07T07:15:11;-4.80;99.90
31309;DHT22;17936;52.446;10.840;2023-02-07T07:17:37;-4.50;99.90
31309;DHT22;17936;52.446;10.840;2023-02-07T07:20:03;-4.40;99.90
31309;DHT22;17936;52.446;10.840;2023-02-07T07:22:28;-4.60;99.90
31309;DHT22;17936;52.446;10.840;2023-02-07T07:24:54;-4.70;99.90
31309;DHT22;17936;52.446;10.840;2023-02-07T07:27:23;-4.60;99.90
31309;DHT22;17936;52.446;10.840;2023-02-07T07:29:48;-4.50;99.90
31309;DHT22;17936;52.446;10.840;2023-02-07T07:32:14;-4.40;99.90
31309;DHT22;17936;52.446;10.840;2023-02-07T07:34:40;-4.20;99.90
31309;DHT22;17936;52.446;10.840;2023-02-07T07:37:05;-4.10;99.90
31309;DHT22;17936;52.446;10.840;2023-02-07T07:39:31;-3.90;99.90
31309;DHT22;17936;52.446;10.840;2023-02-07T07:41:57;-3.80;99.90
31309;DHT22;17936;52.446;10.840;2023-02-07T07:44:22;-3.70;99.90
31309;DHT22;17936;52.446;10.840;2023-02-07T07:46:48;-3.60;99.90
31309;DHT22;17936;52.446;10.840;2023-02-07T07:49:14;-3.50;99.90
31309;DHT22;17936;52.446;10.840;2023-02-07T07:51:40;-3.30;99.90
31309;DHT22;17936;52.446;10.840;2023-02-07T07:54:06;-3.10;99.90
31309;DHT22;17936;52.446;10.840;2023-02-07T07:56:31;-2.80;99.90
31309;DHT22;17936;52.446;10.840;2023-02-07T07:58:58;-2.60;99.90
31309;DHT22;17936;52.446;10.840;2023-02-07T08:01:24;-2.60;99.90
31309;DHT22;17936;52.446;10.840;2023-02-07T08:03:49;-2.50;99.90
31309;DHT22;17936;52.446;10.840;2023-02-07T08:06:15;-2.50;99.90
31309;DHT22;17936;52.446;10.840;2023-02-07T08:08:40;-2.40;99.90
31309;DHT22;17936;52.446;10.840;2023-02-07T08:11:08;-2.10;99.90
31309;DHT22;17936;52.446;10.840;2023-02-07T08:13:35;-1.90;99.90
31309;DHT22;17936;52.446;10.840;2023-02-07T08:16:01;-1.50;99.90
31309;DHT22;17936;52.446;10.840;2023-02-07T08:18:28;-1.60;99.90
31309;DHT22;17936;52.446;10.840;2023-02-07T08:20:54;-1.30;99.90
31309;DHT22;17936;52.446;10.840;2023-02-07T08:23:19;-1.40;99.90
31309;DHT22;17936;52.446;10.840;2023-02-07T08:25:45;-1.40;99.90
31309;DHT22;17936;52.446;10.840;2023-02-07T08:28:15;-1.30;99.90
31309;DHT22;17936;52.446;10.840;2023-02-07T08:30:41;-1.20;99.90
31309;DHT22;17936;52.446;10.840;2023-02-07T08:33:07;-1.30;99.90
31309;DHT22;17936;52.446;10.840;2023-02-07T08:35:32;-0.90;99.90
31309;DHT22;17936;52.446;10.840;2023-02-07T08:37:58;-0.70;99.90
31309;DHT22;17936;52.446;10.840;2023-02-07T08:40:24;-0.90;99.90
31309;DHT22;17936;52.446;10.840;2023-02-07T08:42:50;-0.60;99.90
31309;DHT22;17936;52.446;10.840;2023-02-07T08:45:16;-0.80;99.90
31309;DHT22;17936;52.446;10.840;2023-02-07T08:47:43;-0.50;99.90
31309;DHT22;17936;52.446;10.840;2023-02-07T08:50:10;-0.60;99.90
31309;DHT22;17936;52.446;10.840;2023-02-07T08:52:36;-0.70;99.90
31309;DHT22;17936;52.446;10.840;2023-02-07T08:55:01;-0.70;99.90
31309;DHT22;17936;52.446;10.840;2023-02-07T08:57:27;-0.80;99.90
31309;DHT22;17936;52.446;10.840;2023-02-07T08:59:52;-0.80;99.90
31309;DHT22;17936;52.446;10.840;2023-02-07T09:02:18;-0.40;99.90
31309;DHT22;17936;52.446;10.840;2023-02-07T09:04:44;-0.10;99.90
31309;DHT22;17936;52.446;10.840;2023-02-07T09:07:10;-0.20;99.90
31309;DHT22;17936;52.446;10.840;2023-02-07T09:09:36;-0.30;99.90
31309;DHT22;17936;52.446;10.840;2023-02-07T09:12:02;0.00;99.90
31309;DHT22;17936;52.446;10.840;2023-02-07T09:14:27;-0.20;99.90
31309;DHT22;17936;52.446;10.840;2023-02-07T09:16:53;-0.10;99.90
31309;DHT22;17936;52.446;10.840;2023-02-07T09:19:19;0.00;99.90
31309;DHT22;17936;52.446;10.840;2023-02-07T09:21:44;0.30;99.90
31309;DHT22;17936;52.446;10.840;2023-02-07T09:24:10;0.20;99.90
31309;DHT22;17936;52.446;10.840;2023-02-07T09:26:35;0.30;99.90
31309;DHT22;17936;52.446;10.840;2023-02-07T09:29:04;0.40;99.90
31309;DHT22;17936;52.446;10.840;2023-02-07T09:31:30;0.60;99.90
31309;DHT22;17936;52.446;10.840;2023-02-07T09:33:56;0.60;99.90
31309;DHT22;17936;52.446;10.840;2023-02-07T09:36:24;0.90;99.90
31309;DHT22;17936;52.446;10.840;2023-02-07T09:38:50;0.70;99.90
31309;DHT22;17936;52.446;10.840;2023-02-07T09:41:38;0.90;99.90
31309;DHT22;17936;52.446;10.840;2023-02-07T09:44:56;1.10;99.90
31309;DHT22;17936;52.446;10.840;2023-02-07T09:47:06;1.10;99.90
31309;DHT22;17936;52.446;10.840;2023-02-07T09:49:44;1.10;99.90
31309;DHT22;17936;52.446;10.840;2023-02-07T09:52:14;1.40;99.90
31309;DHT22;17936;52.446;10.840;2023-02-07T09:54:45;2.00;99.90
31309;DHT22;17936;52.446;10.840;2023-02-07T09:57:17;1.60;99.90
31309;DHT22;17936;52.446;10.840;2023-02-07T10:00:01;1.30;99.90
31309;DHT22;17936;52.446;10.840;2023-02-07T10:05:20;1.60;99.90
31309;DHT22;17936;52.446;10.840;2023-02-07T10:07:47;1.80;99.90
31309;DHT22;17936;52.446;10.840;2023-02-07T10:10:18;1.70;99.90
31309;DHT22;17936;52.446;10.840;2023-02-07T10:13:09;1.70;99.90
31309;DHT22;17936;52.446;10.840;2023-02-07T10:24:00;1.70;99.90
31309;DHT22;17936;52.446;10.840;2023-02-07T10:26:40;1.70;99.90
31309;DHT22;17936;52.446;10.840;2023-02-07T10:32:00;1.80;99.90
31309;DHT22;17936;52.446;10.840;2023-02-07T10:34:31;2.20;99.90
31309;DHT22;17936;52.446;10.840;2023-02-07T10:36:58;2.00;99.90
31309;DHT22;17936;52.446;10.840;2023-02-07T10:39:28;2.50;97.00
31309;DHT22;17936;52.446;10.840;2023-02-07T10:41:56;2.70;99.90
31309;DHT22;17936;52.446;10.840;2023-02-07T10:44:23;2.50;93.50
31309;DHT22;17936;52.446;10.840;2023-02-07T10:47:01;2.30;99.90
31309;DHT22;17936;52.446;10.840;2023-02-07T10:49:33;2.50;99.90
31309;DHT22;17936;52.446;10.840;2023-02-07T10:55:00;2.30;99.90
31309;DHT22;17936;52.446;10.840;2023-02-07T10:57:27;2.20;99.30
31309;DHT22;17936;52.446;10.840;2023-02-07T11:02:51;2.40;99.90
31309;DHT22;17936;52.446;10.840;2023-02-07T11:08:21;2.50;1.00
31309;DHT22;17936;52.446;10.840;2023-02-07T11:10:48;3.00;1.00
31309;DHT22;17936;52.446;10.840;2023-02-07T11:13:17;3.00;40.40
31309;DHT22;17936;52.446;10.840;2023-02-07T11:18:45;3.10;99.90
31309;DHT22;17936;52.446;10.840;2023-02-07T11:23:49;3.70;99.90
31309;DHT22;17936;52.446;10.840;2023-02-07T11:26:17;3.10;68.80
31309;DHT22;17936;52.446;10.840;2023-02-07T11:28:43;3.10;99.90
31309;DHT22;17936;52.446;10.840;2023-02-07T11:31:12;3.20;99.90
31309;DHT22;17936;52.446;10.840;2023-02-07T11:33:40;3.40;99.90
31309;DHT22;17936;52.446;10.840;2023-02-07T11:36:10;4.00;99.90
31309;DHT22;17936;52.446;10.840;2023-02-07T11:38:44;3.90;99.90
31309;DHT22;17936;52.446;10.840;2023-02-07T11:41:22;4.00;99.90
31309;DHT22;17936;52.446;10.840;2023-02-07T11:43:59;4.00;70.80
31309;DHT22;17936;52.446;10.840;2023-02-07T11:46:39;3.60;21.70
31309;DHT22;17936;52.446;10.840;2023-02-07T11:49:07;3.30;1.00
31309;DHT22;17936;52.446;10.840;2023-02-07T11:51:42;3.30;99.90
31309;DHT22;17936;52.446;10.840;2023-02-07T11:54:09;3.40;99.90
31309;DHT22;17936;52.446;10.840;2023-02-07T11:56:39;3.60;99.90
31309;DHT22;17936;52.446;10.840;2023-02-07T11:59:10;3.50;99.90
31309;DHT22;17936;52.446;10.840;2023-02-07T12:01:40;3.70;99.90
31309;DHT22;17936;52.446;10.840;2023-02-07T12:04:14;4.00;99.90
31309;DHT22;17936;52.446;10.840;2023-02-07T12:09:31;3.40;99.90
31309;DHT22;17936;52.446;10.840;2023-02-07T12:11:59;3.60;99.90
31309;DHT22;17936;52.446;10.840;2023-02-07T12:14:47;3.60;99.90
31309;DHT22;17936;52.446;10.840;2023-02-07T12:17:24;3.80;99.90
31309;DHT22;17936;52.446;10.840;2023-02-07T12:19:54;3.80;1.00
31309;DHT22;17936;52.446;10.840;2023-02-07T12:22:25;3.80;99.90
31309;DHT22;17936;52.446;10.840;2023-02-07T12:25:02;3.70;99.90
31309;DHT22;17936;52.446;10.840;2023-02-07T12:27:35;3.60;99.90
31309;DHT22;17936;52.446;10.840;2023-02-07T12:35:39;3.30;99.90
31309;DHT22;17936;52.446;10.840;2023-02-07T12:38:23;3.40;99.90
31309;DHT22;17936;52.446;10.840;2023-02-07T12:40:53;3.30;99.90
31309;DHT22;17936;52.446;10.840;2023-02-07T12:43:23;3.50;99.90
31309;DHT22;17936;52.446;10.840;2023-02-07T12:51:48;3.60;99.90
31309;DHT22;17936;52.446;10.840;2023-02-07T12:54:29;3.70;99.90
31309;DHT22;17936;52.446;10.840;2023-02-07T13:05:40;3.50;99.90
31309;DHT22;17936;52.446;10.840;2023-02-07T13:11:23;3.30;99.90
31309;DHT22;17936;52.446;10.840;2023-02-07T13:16:43;3.50;99.90
31309;DHT22;17936;52.446;10.840;2023-02-07T13:19:43;3.70;99.90
31309;DHT22;17936;52.446;10.840;2023-02-07T13:22:28;3.40;99.90
31309;DHT22;17936;52.446;10.840;2023-02-07T13:24:57;3.40;99.90
31309;DHT22;17936;52.446;10.840;2023-02-07T13:27:25;3.60;99.90
31309;DHT22;17936;52.446;10.840;2023-02-07T13:29:51;3.70;99.90
31309;DHT22;17936;52.446;10.840;2023-02-07T13:32:25;3.60;99.90
31309;DHT22;17936;52.446;10.840;2023-02-07T13:35:12;3.50;99.90
31309;DHT22;17936;52.446;10.840;2023-02-07T13:45:57;3.70;99.90
31309;DHT22;17936;52.446;10.840;2023-02-07T13:48:42;3.80;99.90
31309;DHT22;17936;52.446;10.840;2023-02-07T13:51:42;3.50;99.90
31309;DHT22;17936;52.446;10.840;2023-02-07T13:57:00;3.40;99.90
31309;DHT22;17936;52.446;10.840;2023-02-07T14:02:41;3.30;99.90
31309;DHT22;17936;52.446;10.840;2023-02-07T14:05:15;3.40;99.90
31309;DHT22;17936;52.446;10.840;2023-02-07T14:07:53;3.30;99.90
31309;DHT22;17936;52.446;10.840;2023-02-07T14:10:54;3.30;99.90
31309;DHT22;17936;52.446;10.840;2023-02-07T14:18:45;3.40;99.90
31309;DHT22;17936;52.446;10.840;2023-02-07T14:24:15;3.10;99.90
31309;DHT22;17936;52.446;10.840;2023-02-07T14:26:50;3.10;99.90
31309;DHT22;17936;52.446;10.840;2023-02-07T14:31:59;3.20;99.90
31309;DHT22;17936;52.446;10.840;2023-02-07T14:34:30;3.00;99.90
31309;DHT22;17936;52.446;10.840;2023-02-07T14:36:56;3.10;99.90
31309;DHT22;17936;52.446;10.840;2023-02-07T14:39:26;3.10;99.90
31309;DHT22;17936;52.446;10.840;2023-02-07T14:42:16;3.10;99.90
31309;DHT22;17936;52.446;10.840;2023-02-07T14:44:43;3.50;99.90
31309;DHT22;17936;52.446;10.840;2023-02-07T14:47:27;3.20;99.90
31309;DHT22;17936;52.446;10.840;2023-02-07T14:49:56;2.90;99.90
31309;DHT22;17936;52.446;10.840;2023-02-07T14:52:27;2.90;99.90
31309;DHT22;17936;52.446;10.840;2023-02-07T14:55:05;3.00;99.90
31309;DHT22;17936;52.446;10.840;2023-02-07T14:57:34;2.90;99.90
31309;DHT22;17936;52.446;10.840;2023-02-07T15:02:54;3.00;99.90
31309;DHT22;17936;52.446;10.840;2023-02-07T15:05:47;2.80;99.90
31309;DHT22;17936;52.446;10.840;2023-02-07T15:08:12;2.70;99.90
31309;DHT22;17936;52.446;10.840;2023-02-07T15:10:54;2.60;99.90
31309;DHT22;17936;52.446;10.840;2023-02-07T15:13:26;2.40;99.90
31309;DHT22;17936;52.446;10.840;2023-02-07T15:15:57;2.60;99.90
31309;DHT22;17936;52.446;10.840;2023-02-07T15:18:27;2.40;99.90
31309;DHT22;17936;52.446;10.840;2023-02-07T15:20:55;2.30;99.90
31309;DHT22;17936;52.446;10.840;2023-02-07T15:23:21;2.20;99.90
31309;DHT22;17936;52.446;10.840;2023-02-07T15:25:48;2.10;99.90
31309;DHT22;17936;52.446;10.840;2023-02-07T15:28:20;2.10;99.90
31309;DHT22;17936;52.446;10.840;2023-02-07T15:33:57;2.00;99.90
31309;DHT22;17936;52.446;10.840;2023-02-07T15:36:36;2.00;99.90
31309;DHT22;17936;52.446;10.840;2023-02-07T15:41:39;2.00;99.90
31309;DHT22;17936;52.446;10.840;2023-02-07T15:49:29;1.70;99.90
31309;DHT22;17936;52.446;10.840;2023-02-07T15:54:25;1.70;99.90
31309;DHT22;17936;52.446;10.840;2023-02-07T15:56:57;1.60;99.90
31309;DHT22;17936;52.446;10.840;2023-02-07T15:59:26;1.50;99.90
31309;DHT22;17936;52.446;10.840;2023-02-07T16:01:55;1.40;99.90
31309;DHT22;17936;52.446;10.840;2023-02-07T16:04:27;1.50;99.90
31309;DHT22;17936;52.446;10.840;2023-02-07T16:07:04;1.30;99.90
31309;DHT22;17936;52.446;10.840;2023-02-07T16:09:43;1.20;99.90
31309;DHT22;17936;52.446;10.840;2023-02-07T16:12:50;1.30;99.90
31309;DHT22;17936;52.446;10.840;2023-02-07T16:15:24;1.00;99.90
31309;DHT22;17936;52.446;10.840;2023-02-07T16:17:49;0.90;99.90
31309;DHT22;17936;52.446;10.840;2023-02-07T16:20:15;0.80;99.90
31309;DHT22;17936;52.446;10.840;2023-02-07T16:22:43;1.00;99.90
31309;DHT22;17936;52.446;10.840;2023-02-07T16:25:18;0.90;99.90
31309;DHT22;17936;52.446;10.840;2023-02-07T16:27:46;0.90;99.90
31309;DHT22;17936;52.446;10.840;2023-02-07T16:30:15;0.60;99.90
31309;DHT22;17936;52.446;10.840;2023-02-07T16:32:41;0.50;99.90
31309;DHT22;17936;52.446;10.840;2023-02-07T16:35:26;0.40;99.90
31309;DHT22;17936;52.446;10.840;2023-02-07T16:37:52;0.40;99.90
31309;DHT22;17936;52.446;10.840;2023-02-07T16:40:18;0.40;99.90
31309;DHT22;17936;52.446;10.840;2023-02-07T16:42:46;0.10;99.90
31309;DHT22;17936;52.446;10.840;2023-02-07T16:45:18;0.20;99.90
31309;DHT22;17936;52.446;10.840;2023-02-07T16:47:44;0.10;99.90
31309;DHT22;17936;52.446;10.840;2023-02-07T16:50:18;0.10;99.90
31309;DHT22;17936;52.446;10.840;2023-02-07T16:52:45;0.30;24.20
31309;DHT22;17936;52.446;10.840;2023-02-07T16:55:11;-0.20;99.90
31309;DHT22;17936;52.446;10.840;2023-02-07T16:57:37;-0.10;1.00
31309;DHT22;17936;52.446;10.840;2023-02-07T17:00:05;0.00;54.90
31309;DHT22;17936;52.446;10.840;2023-02-07T17:02:30;0.10;75.50
31309;DHT22;17936;52.446;10.840;2023-02-07T17:04:56;-0.20;99.90
31309;DHT22;17936;52.446;10.840;2023-02-07T17:07:22;-0.30;99.90
31309;DHT22;17936;52.446;10.840;2023-02-07T17:09:47;-0.40;99.90
31309;DHT22;17936;52.446;10.840;2023-02-07T17:12:15;-0.50;99.90
31309;DHT22;17936;52.446;10.840;2023-02-07T17:14:40;-0.60;99.90
31309;DHT22;17936;52.446;10.840;2023-02-07T17:17:07;-1.40;99.90
31309;DHT22;17936;52.446;10.840;2023-02-07T17:19:33;0.10;99.90
31309;DHT22;17936;52.446;10.840;2023-02-07T17:21:59;-0.50;99.90
31309;DHT22;17936;52.446;10.840;2023-02-07T17:24:24;-0.50;99.90
31309;DHT22;17936;52.446;10.840;2023-02-07T17:26:52;-0.60;99.90
31309;DHT22;17936;52.446;10.840;2023-02-07T17:29:18;-0.60;99.90
31309;DHT22;17936;52.446;10.840;2023-02-07T17:31:44;0.30;99.90
31309;DHT22;17936;52.446;10.840;2023-02-07T17:34:11;-0.50;99.90
31309;DHT22;17936;52.446;10.840;2023-02-07T17:36:37;-0.80;99.90
31309;DHT22;17936;52.446;10.840;2023-02-07T17:39:06;-0.80;99.90
31309;DHT22;17936;52.446;10.840;2023-02-07T17:41:31;-0.80;99.90
31309;DHT22;17936;52.446;10.840;2023-02-07T17:43:58;-0.50;99.90
31309;DHT22;17936;52.446;10.840;2023-02-07T17:46:25;-0.60;99.90
31309;DHT22;17936;52.446;10.840;2023-02-07T17:48:51;-0.90;99.90